createdAt,value
2023-05-02T00:01:18.918Z,11.70
2023-05-02T00:04:04.999Z,11.60
2023-05-02T00:06:53.265Z,11.50
2023-05-02T00:09:38.595Z,11.40
2023-05-02T00:12:24.041Z,11.40
2023-05-02T00:15:10.132Z,11.40
2023-05-02T00:17:55.572Z,11.30
2023-05-02T00:20:42.066Z,11.70
2023-05-02T00:23:27.504Z,12.40
2023-05-02T00:26:12.814Z,11.40
2023-05-02T00:28:58.903Z,11.40
2023-05-02T00:31:44.870Z,11.30
2023-05-02T00:34:31.556Z,11.30
2023-05-02T00:37:17.142Z,11.30
2023-05-02T00:40:03.547Z,11.30
2023-05-02T00:42:48.640Z,11.10
2023-05-02T00:45:34.220Z,11.60
2023-05-02T00:48:21.812Z,11.20
2023-05-02T00:51:08.710Z,12.00
2023-05-02T00:53:54.241Z,11.20
2023-05-02T00:56:39.594Z,11.30
2023-05-02T00:59:26.778Z,10.80
2023-05-02T01:02:31.239Z,10.80
2023-05-02T01:05:36.099Z,10.70
2023-05-02T01:08:47.130Z,10.70
2023-05-02T01:11:40.263Z,10.60
2023-05-02T01:14:29.666Z,10.40
2023-05-02T01:17:17.165Z,10.40
2023-05-02T01:20:08.762Z,10.30
2023-05-02T01:22:58.544Z,10.50
2023-05-02T01:26:31.279Z,10.40
2023-05-02T01:29:18.583Z,10.40
2023-05-02T01:32:06.713Z,10.40
2023-05-02T01:34:54.147Z,10.40
2023-05-02T01:37:41.098Z,10.50
2023-05-02T01:40:27.161Z,10.40
2023-05-02T01:43:14.872Z,10.40
2023-05-02T01:46:02.125Z,10.40
2023-05-02T01:48:50.463Z,10.50
2023-05-02T01:51:40.845Z,10.50
2023-05-02T01:54:27.522Z,10.30
2023-05-02T01:57:14.720Z,10.40
2023-05-02T02:00:02.151Z,10.30
2023-05-02T02:02:48.900Z,11.20
2023-05-02T02:05:37.092Z,10.30
2023-05-02T02:08:22.667Z,10.30
2023-05-02T02:11:12.097Z,10.40
2023-05-02T02:14:06.585Z,10.40
2023-05-02T02:16:56.258Z,10.20
2023-05-02T02:19:44.187Z,10.40
2023-05-02T02:22:30.800Z,10.80
2023-05-02T02:25:18.059Z,10.40
2023-05-02T02:28:03.875Z,10.50
2023-05-02T02:30:49.172Z,10.40
2023-05-02T02:33:34.890Z,10.50
2023-05-02T02:36:55.369Z,10.50
2023-05-02T02:39:46.493Z,11.00
2023-05-02T02:42:40.036Z,10.60
2023-05-02T02:45:35.385Z,10.50
2023-05-02T02:48:33.284Z,10.50
2023-05-02T02:51:47.135Z,10.60
2023-05-02T02:54:40.442Z,10.60
2023-05-02T02:57:40.999Z,10.50
2023-05-02T03:00:28.416Z,10.60
2023-05-02T03:03:15.872Z,10.90
2023-05-02T03:06:03.969Z,11.20
2023-05-02T03:08:49.502Z,10.60
2023-05-02T03:11:35.134Z,10.60
2023-05-02T03:14:20.563Z,10.70
2023-05-02T03:17:08.515Z,10.70
2023-05-02T03:19:54.119Z,10.70
2023-05-02T03:22:39.639Z,10.70
2023-05-02T03:25:25.107Z,10.70
2023-05-02T03:28:11.270Z,10.80
2023-05-02T03:30:57.967Z,11.10
2023-05-02T03:33:43.305Z,11.80
2023-05-02T03:36:28.739Z,10.90
2023-05-02T03:39:15.273Z,10.90
2023-05-02T03:42:00.907Z,10.90
2023-05-02T03:44:46.648Z,12.50
2023-05-02T03:47:32.253Z,10.80
2023-05-02T03:50:17.611Z,11.20
2023-05-02T03:53:03.100Z,10.90
2023-05-02T03:55:48.755Z,10.90
2023-05-02T03:58:36.242Z,10.70
2023-05-02T04:01:21.509Z,11.00
2023-05-02T04:04:07.246Z,11.10
2023-05-02T04:06:52.821Z,11.10
2023-05-02T04:09:38.421Z,11.00
2023-05-02T04:12:24.036Z,11.00
2023-05-02T04:15:10.874Z,10.60
2023-05-02T04:17:59.142Z,10.60
2023-05-02T04:20:45.442Z,10.70
2023-05-02T04:23:30.774Z,11.10
2023-05-02T04:26:16.567Z,10.80
2023-05-02T04:29:02.609Z,11.50
2023-05-02T04:31:48.969Z,10.90
2023-05-02T04:34:34.568Z,10.90
2023-05-02T04:37:21.115Z,10.90
2023-05-02T04:40:09.239Z,10.80
2023-05-02T04:42:54.876Z,10.90
2023-05-02T04:45:40.394Z,11.10
2023-05-02T04:48:26.524Z,10.80
2023-05-02T04:51:12.534Z,10.80
2023-05-02T04:53:58.557Z,11.70
2023-05-02T04:56:44.326Z,10.70
2023-05-02T04:59:30.402Z,10.80
2023-05-02T05:02:16.372Z,10.90
2023-05-02T05:05:02.776Z,10.60
2023-05-02T05:07:48.748Z,10.60
2023-05-02T05:10:34.509Z,11.00
2023-05-02T05:13:19.968Z,10.40
2023-05-02T05:16:05.600Z,10.70
2023-05-02T05:18:50.932Z,10.50
2023-05-02T05:21:37.141Z,10.60
2023-05-02T05:24:22.702Z,11.10
2023-05-02T05:27:08.575Z,10.70
2023-05-02T05:29:54.297Z,10.90
2023-05-02T05:32:39.972Z,11.20
2023-05-02T05:35:25.873Z,11.10
2023-05-02T05:38:11.377Z,11.20
2023-05-02T05:40:56.947Z,11.40
2023-05-02T05:43:42.565Z,11.90
2023-05-02T05:46:27.824Z,12.90
2023-05-02T05:49:15.686Z,12.50
2023-05-02T05:52:02.184Z,10.90
2023-05-02T05:54:47.675Z,10.90
2023-05-02T05:57:33.080Z,11.50
2023-05-02T06:00:19.069Z,11.50
2023-05-02T06:03:08.044Z,11.50
2023-05-02T06:05:54.922Z,11.60
2023-05-02T06:08:40.610Z,13.10
2023-05-02T06:11:26.379Z,11.80
2023-05-02T06:14:11.685Z,11.70
2023-05-02T06:16:59.593Z,11.70
2023-05-02T06:19:45.077Z,11.70
2023-05-02T06:22:30.631Z,11.70
2023-05-02T06:25:16.026Z,11.80
2023-05-02T06:28:01.422Z,12.10
2023-05-02T06:30:46.918Z,12.80
2023-05-02T06:33:33.826Z,12.90
2023-05-02T06:36:19.118Z,13.20
2023-05-02T06:39:04.684Z,13.20
2023-05-02T06:41:50.067Z,14.40
2023-05-02T06:44:35.312Z,13.80
2023-05-02T06:47:21.091Z,14.00
2023-05-02T06:50:07.030Z,14.10
2023-05-02T06:52:52.314Z,14.00
2023-05-02T06:55:38.102Z,14.80
2023-05-02T06:58:23.868Z,13.80
2023-05-02T07:01:09.600Z,13.60
2023-05-02T07:03:54.932Z,13.30
2023-05-02T07:06:41.239Z,13.10
2023-05-02T07:09:27.065Z,13.40
2023-05-02T07:12:12.474Z,13.20
2023-05-02T07:14:57.803Z,13.30
2023-05-02T07:17:43.459Z,14.70
2023-05-02T07:20:28.681Z,14.00
2023-05-02T07:23:14.316Z,13.70
2023-05-02T07:26:00.065Z,14.30
2023-05-02T07:28:45.526Z,14.20
2023-05-02T07:31:30.962Z,14.20
2023-05-02T07:34:16.607Z,14.30
2023-05-02T07:37:02.370Z,14.20
2023-05-02T07:39:47.827Z,15.60
2023-05-02T07:42:33.276Z,15.00
2023-05-02T07:45:18.770Z,15.30
2023-05-02T07:48:04.498Z,15.90
2023-05-02T07:50:49.850Z,16.50
2023-05-02T07:53:35.228Z,16.50
2023-05-02T07:56:21.288Z,16.70
2023-05-02T07:59:06.438Z,16.70
2023-05-02T08:01:52.144Z,16.60
2023-05-02T08:04:37.931Z,16.60
2023-05-02T08:07:23.682Z,16.10
2023-05-02T08:10:10.473Z,16.00
2023-05-02T08:12:55.781Z,15.80
2023-05-02T08:15:41.254Z,15.80
2023-05-02T08:18:27.212Z,16.00
2023-05-02T08:21:13.182Z,16.60
2023-05-02T08:23:59.653Z,16.20
2023-05-02T08:26:44.919Z,16.30
2023-05-02T08:29:31.615Z,16.20
2023-05-02T08:32:17.274Z,16.20
2023-05-02T08:35:03.204Z,16.30
2023-05-02T08:37:48.474Z,16.50
2023-05-02T08:40:42.061Z,16.20
2023-05-02T08:43:30.889Z,16.00
2023-05-02T08:46:17.629Z,16.40
2023-05-02T08:49:03.587Z,16.20
2023-05-02T08:51:51.711Z,15.70
2023-05-02T08:54:38.423Z,15.60
2023-05-02T08:57:24.043Z,15.40
2023-05-02T09:00:10.115Z,16.00
2023-05-02T09:03:14.303Z,15.50
2023-05-02T09:06:04.943Z,15.80
2023-05-02T09:08:54.843Z,16.50
2023-05-02T09:11:40.737Z,18.20
2023-05-02T09:14:26.581Z,18.00
2023-05-02T09:17:12.031Z,17.40
2023-05-02T09:20:01.437Z,17.80
2023-05-02T09:22:51.590Z,17.70
2023-05-02T09:25:38.468Z,17.70
2023-05-02T09:28:40.061Z,17.40
2023-05-02T09:31:55.100Z,17.70
2023-05-02T09:35:04.313Z,18.00
2023-05-02T09:37:59.238Z,18.50
2023-05-02T09:40:57.869Z,18.00
2023-05-02T09:43:43.523Z,17.10
2023-05-02T09:46:40.767Z,16.60
2023-05-02T09:49:45.065Z,17.10
2023-05-02T09:52:30.959Z,16.60
2023-05-02T09:55:22.616Z,16.70
2023-05-02T09:58:11.667Z,17.10
2023-05-02T10:00:58.013Z,18.10
2023-05-02T10:03:47.698Z,17.50
2023-05-02T10:06:33.560Z,17.50
2023-05-02T10:09:21.721Z,18.30
2023-05-02T10:12:08.702Z,18.70
2023-05-02T10:15:00.736Z,18.80
2023-05-02T10:17:49.404Z,18.10
2023-05-02T10:20:37.779Z,17.90
2023-05-02T10:23:27.097Z,18.90
2023-05-02T10:26:17.428Z,17.80
2023-05-02T10:29:02.891Z,17.60
2023-05-02T10:31:50.085Z,18.40
2023-05-02T10:34:37.986Z,18.50
2023-05-02T10:37:27.769Z,18.50
2023-05-02T10:40:13.775Z,19.10
2023-05-02T10:42:59.516Z,18.60
2023-05-02T10:45:45.560Z,18.90
2023-05-02T10:48:31.409Z,19.80
2023-05-02T10:51:29.578Z,19.70
2023-05-02T10:54:18.067Z,20.30
2023-05-02T10:57:06.011Z,21.20
2023-05-02T10:59:51.208Z,21.30
2023-05-02T11:02:38.148Z,21.00
2023-05-02T11:05:24.789Z,20.90
2023-05-02T11:08:20.156Z,20.10
2023-05-02T11:11:43.299Z,19.80
2023-05-02T11:14:38.120Z,18.30
2023-05-02T11:17:23.588Z,18.20
2023-05-02T11:20:09.240Z,18.00
2023-05-02T11:22:56.503Z,18.50
2023-05-02T11:25:43.909Z,19.00
2023-05-02T11:28:40.875Z,19.60
2023-05-02T11:31:29.450Z,19.00
2023-05-02T11:34:15.410Z,18.30
2023-05-02T11:37:01.045Z,19.00
2023-05-02T11:39:51.531Z,18.90
2023-05-02T11:42:36.860Z,18.20
2023-05-02T11:45:23.980Z,19.40
2023-05-02T11:48:11.524Z,20.00
2023-05-02T11:51:05.661Z,20.70
2023-05-02T11:53:51.492Z,20.50
2023-05-02T11:56:37.126Z,20.10
2023-05-02T11:59:22.478Z,20.00
2023-05-02T12:02:07.897Z,20.30
2023-05-02T12:04:53.389Z,20.60
2023-05-02T12:07:44.980Z,21.10
2023-05-02T12:10:37.732Z,21.10
2023-05-02T12:13:25.077Z,21.40
2023-05-02T12:16:10.458Z,21.50
2023-05-02T12:18:58.171Z,21.80
2023-05-02T12:21:43.946Z,21.80
2023-05-02T12:24:29.953Z,21.90
2023-05-02T12:27:16.936Z,21.60
2023-05-02T12:30:02.822Z,21.60
2023-05-02T12:32:59.891Z,21.90
2023-05-02T12:35:47.612Z,22.20
2023-05-02T12:38:34.010Z,21.50
2023-05-02T12:41:30.665Z,22.00
2023-05-02T12:44:16.205Z,22.30
2023-05-02T12:47:01.734Z,22.60
2023-05-02T12:49:54.864Z,22.50
2023-05-02T12:52:51.235Z,21.20
2023-05-02T12:55:37.211Z,20.40
2023-05-02T12:58:25.515Z,19.80
2023-05-02T13:01:11.519Z,19.30
2023-05-02T13:03:57.040Z,20.10
2023-05-02T13:06:43.621Z,21.60
2023-05-02T13:09:30.617Z,22.20
2023-05-02T13:12:16.014Z,22.30
2023-05-02T13:15:01.578Z,22.60
2023-05-02T13:17:48.132Z,22.90
2023-05-02T13:20:33.882Z,23.60
2023-05-02T13:23:19.554Z,23.50
2023-05-02T13:26:04.955Z,22.80
2023-05-02T13:28:50.199Z,24.10
2023-05-02T13:31:35.843Z,24.80
2023-05-02T13:34:21.047Z,24.10
2023-05-02T13:37:06.659Z,24.90
2023-05-02T13:39:52.109Z,24.90
2023-05-02T13:42:37.618Z,24.80
2023-05-02T13:45:24.406Z,24.10
2023-05-02T13:48:10.230Z,23.20
2023-05-02T13:50:55.626Z,22.80
2023-05-02T13:53:41.252Z,23.30
2023-05-02T13:56:26.985Z,24.40
2023-05-02T13:59:12.192Z,23.20
2023-05-02T14:01:58.035Z,22.50
2023-05-02T14:04:43.222Z,22.10
2023-05-02T14:07:29.499Z,21.90
2023-05-02T14:10:15.046Z,21.40
2023-05-02T14:13:00.704Z,21.00
2023-05-02T14:15:46.229Z,21.30
2023-05-02T14:18:31.742Z,21.00
2023-05-02T14:21:17.523Z,22.70
2023-05-02T14:24:03.053Z,21.00
2023-05-02T14:26:48.487Z,21.70
2023-05-02T14:29:33.862Z,22.10
2023-05-02T14:32:19.290Z,23.10
2023-05-02T14:35:05.221Z,21.40
2023-05-02T14:37:50.533Z,21.10
2023-05-02T14:40:36.023Z,21.30
2023-05-02T14:43:21.701Z,21.20
2023-05-02T14:46:06.875Z,21.00
2023-05-02T14:48:52.668Z,21.00
2023-05-02T14:51:39.408Z,20.70
2023-05-02T14:54:30.395Z,20.50
2023-05-02T14:57:16.416Z,20.50
2023-05-02T15:00:02.400Z,20.60
2023-05-02T15:02:48.088Z,20.00
2023-05-02T15:05:34.181Z,19.70
2023-05-02T15:08:19.687Z,19.70
2023-05-02T15:11:05.177Z,19.60
2023-05-02T15:13:50.788Z,20.00
2023-05-02T15:16:37.533Z,20.20
2023-05-02T15:19:25.127Z,20.00
2023-05-02T15:22:11.299Z,20.00
2023-05-02T15:24:57.586Z,19.80
2023-05-02T15:27:42.869Z,19.50
2023-05-02T15:30:28.561Z,19.20
2023-05-02T15:33:14.033Z,19.10
2023-05-02T15:35:59.308Z,19.10
2023-05-02T15:38:44.871Z,19.30
2023-05-02T15:41:30.556Z,20.10
2023-05-02T15:44:16.014Z,19.50
2023-05-02T15:47:01.326Z,19.70
2023-05-02T15:49:46.653Z,19.60
2023-05-02T15:52:32.022Z,19.70
2023-05-02T15:55:17.611Z,19.60
2023-05-02T15:58:02.834Z,19.50
2023-05-02T16:00:48.599Z,19.40
2023-05-02T16:03:34.371Z,19.30
2023-05-02T16:06:20.175Z,20.00
2023-05-02T16:09:06.627Z,20.30
2023-05-02T16:11:52.054Z,19.80
2023-05-02T16:14:37.556Z,19.50
2023-05-02T16:17:25.189Z,19.80
2023-05-02T16:20:12.969Z,19.80
2023-05-02T16:22:59.966Z,19.40
2023-05-02T16:25:45.255Z,19.30
2023-05-02T16:28:30.864Z,19.40
2023-05-02T16:31:17.487Z,18.70
2023-05-02T16:34:03.184Z,18.60
2023-05-02T16:36:49.873Z,18.70
2023-05-02T16:39:35.520Z,18.50
2023-05-02T16:42:20.986Z,18.80
2023-05-02T16:45:07.217Z,18.70
2023-05-02T16:47:53.403Z,18.70
2023-05-02T16:50:38.858Z,18.70
2023-05-02T16:53:24.772Z,18.60
2023-05-02T16:56:10.298Z,18.60
2023-05-02T16:58:55.707Z,18.60
2023-05-02T17:01:41.308Z,18.90
2023-05-02T17:04:26.547Z,19.40
2023-05-02T17:07:12.411Z,19.60
2023-05-02T17:09:58.033Z,19.70
2023-05-02T17:12:44.074Z,19.90
2023-05-02T17:15:30.806Z,19.60
2023-05-02T17:18:16.699Z,19.40
2023-05-02T17:21:03.741Z,19.30
2023-05-02T17:23:49.358Z,20.40
2023-05-02T17:26:34.961Z,19.90
2023-05-02T17:29:20.620Z,20.00
2023-05-02T17:32:06.362Z,20.00
2023-05-02T17:34:51.700Z,19.90
2023-05-02T17:37:38.324Z,19.90
2023-05-02T17:40:24.940Z,20.00
2023-05-02T17:43:10.008Z,19.50
2023-05-02T17:45:56.035Z,19.30
2023-05-02T17:48:46.438Z,18.70
2023-05-02T17:51:33.794Z,18.50
2023-05-02T17:54:20.089Z,18.50
2023-05-02T17:57:05.488Z,18.70
2023-05-02T17:59:56.713Z,19.50
2023-05-02T18:02:42.588Z,18.60
2023-05-02T18:05:28.184Z,18.50
2023-05-02T18:08:13.426Z,18.20
2023-05-02T18:11:00.107Z,18.70
2023-05-02T18:13:46.277Z,17.80
2023-05-02T18:16:34.244Z,17.70
2023-05-02T18:19:19.938Z,17.40
2023-05-02T18:22:05.801Z,17.40
2023-05-02T18:24:51.266Z,17.30
2023-05-02T18:27:36.652Z,17.40
2023-05-02T18:30:22.070Z,17.20
2023-05-02T18:33:09.182Z,17.10
2023-05-02T18:35:54.949Z,16.90
2023-05-02T18:38:42.153Z,17.10
2023-05-02T18:41:27.644Z,17.00
2023-05-02T18:44:13.473Z,16.80
2023-05-02T18:47:01.132Z,17.10
2023-05-02T18:49:46.699Z,16.60
2023-05-02T18:52:33.339Z,16.60
2023-05-02T18:55:19.037Z,16.70
2023-05-02T18:58:04.418Z,17.10
2023-05-02T19:00:49.955Z,16.50
2023-05-02T19:03:35.906Z,17.20
2023-05-02T19:06:21.673Z,16.20
2023-05-02T19:09:06.932Z,16.60
2023-05-02T19:11:54.088Z,15.80
2023-05-02T19:14:40.259Z,15.60
2023-05-02T19:17:26.794Z,16.00
2023-05-02T19:20:12.758Z,15.80
2023-05-02T19:23:15.189Z,15.90
2023-05-02T19:26:03.332Z,15.90
2023-05-02T19:28:48.824Z,16.20
2023-05-02T19:31:34.511Z,15.80
2023-05-02T19:34:20.847Z,15.70
2023-05-02T19:37:06.473Z,15.70
2023-05-02T19:39:52.629Z,15.60
2023-05-02T19:42:39.399Z,15.60
2023-05-02T19:45:25.220Z,15.60
2023-05-02T19:48:12.136Z,16.20
2023-05-02T19:50:58.466Z,15.40
2023-05-02T19:53:43.885Z,15.30
2023-05-02T19:56:30.052Z,15.50
2023-05-02T19:59:15.617Z,15.10
2023-05-02T20:02:01.234Z,15.00
2023-05-02T20:04:46.653Z,15.00
2023-05-02T20:07:32.120Z,14.90
2023-05-02T20:10:18.466Z,15.20
2023-05-02T20:13:03.930Z,14.60
2023-05-02T20:15:50.736Z,15.30
2023-05-02T20:18:36.465Z,14.70
2023-05-02T20:21:21.676Z,14.70
2023-05-02T20:24:07.509Z,14.60
2023-05-02T20:26:53.236Z,14.60
2023-05-02T20:29:38.990Z,14.60
2023-05-02T20:32:24.517Z,14.50
2023-05-02T20:35:10.247Z,14.20
2023-05-02T20:37:56.059Z,14.10
2023-05-02T20:40:42.810Z,14.00
2023-05-02T20:43:29.025Z,14.00
2023-05-02T20:46:19.265Z,14.80
2023-05-02T20:49:05.741Z,13.80
2023-05-02T20:51:51.661Z,14.50
2023-05-02T20:54:37.202Z,13.60
2023-05-02T20:57:24.311Z,13.70
2023-05-02T21:00:11.433Z,13.60
2023-05-02T21:02:58.193Z,13.50
2023-05-02T21:05:43.664Z,13.40
2023-05-02T21:08:29.324Z,13.40
2023-05-02T21:11:15.941Z,13.10
2023-05-02T21:14:01.508Z,12.90
2023-05-02T21:16:47.229Z,12.90
2023-05-02T21:19:33.287Z,12.80
2023-05-02T21:22:18.705Z,12.80
2023-05-02T21:25:04.578Z,12.80
2023-05-02T21:27:51.285Z,12.80
2023-05-02T21:30:36.845Z,12.40
2023-05-02T21:33:22.516Z,12.00
2023-05-02T21:36:08.441Z,12.60
2023-05-02T21:38:54.246Z,12.10
2023-05-02T21:41:39.706Z,12.90
2023-05-02T21:44:25.109Z,12.20
2023-05-02T21:47:10.849Z,12.30
2023-05-02T21:49:57.201Z,12.30
2023-05-02T21:52:42.348Z,12.30
2023-05-02T21:55:27.879Z,12.30
2023-05-02T21:58:13.282Z,12.10
2023-05-02T22:00:58.834Z,12.00
2023-05-02T22:03:44.306Z,12.50
2023-05-02T22:06:29.611Z,12.00
2023-05-02T22:09:15.118Z,11.90
2023-05-02T22:12:00.576Z,12.70
2023-05-02T22:14:47.227Z,11.60
2023-05-02T22:17:32.886Z,11.50
2023-05-02T22:20:18.280Z,11.40
2023-05-02T22:23:04.247Z,11.50
2023-05-02T22:25:49.720Z,11.50
2023-05-02T22:28:35.497Z,11.50
2023-05-02T22:31:21.538Z,11.50
2023-05-02T22:34:07.182Z,11.40
2023-05-02T22:36:53.041Z,11.20
2023-05-02T22:39:38.733Z,11.20
2023-05-02T22:42:24.537Z,11.70
2023-05-02T22:45:10.847Z,11.60
2023-05-02T22:47:56.489Z,11.20
2023-05-02T22:50:43.211Z,11.00
2023-05-02T22:53:29.713Z,11.10
2023-05-02T22:56:15.833Z,12.70
2023-05-02T22:59:01.539Z,11.00
2023-05-02T23:01:46.937Z,11.00
2023-05-02T23:04:33.573Z,13.00
2023-05-02T23:07:19.952Z,10.80
2023-05-02T23:10:06.409Z,11.00
2023-05-02T23:12:51.970Z,10.90
2023-05-02T23:15:38.169Z,10.80
2023-05-02T23:18:24.009Z,11.20
2023-05-02T23:21:16.755Z,10.70
2023-05-02T23:24:01.962Z,10.70
2023-05-02T23:26:47.364Z,10.70
2023-05-02T23:29:32.985Z,10.60
2023-05-02T23:32:18.335Z,10.60
2023-05-02T23:35:05.840Z,10.50
2023-05-02T23:37:52.695Z,10.50
2023-05-02T23:40:38.030Z,10.50
2023-05-02T23:43:23.922Z,10.60
2023-05-02T23:46:09.266Z,10.60
2023-05-02T23:48:54.906Z,11.10
2023-05-02T23:51:40.564Z,11.00
2023-05-02T23:54:26.167Z,10.50
2023-05-02T23:57:12.049Z,10.60
2023-05-02T23:59:57.691Z,10.30
